createdAt,value
2017-06-14T00:00:37.936Z,14.17
2017-06-14T00:01:18.475Z,14.14
2017-06-14T00:01:59.024Z,14.12
2017-06-14T00:02:39.552Z,14.15
2017-06-14T00:03:20.093Z,14.12
2017-06-14T00:04:00.626Z,14.14
2017-06-14T00:04:41.175Z,14.12
2017-06-14T00:05:21.706Z,14.12
2017-06-14T00:06:02.260Z,14.07
2017-06-14T00:06:42.807Z,14.03
2017-06-14T00:07:23.358Z,14.09
2017-06-14T00:08:03.896Z,14.04
2017-06-14T00:08:44.437Z,14.04
2017-06-14T00:09:24.991Z,14.02
2017-06-14T00:10:05.529Z,14.1
2017-06-14T00:10:46.070Z,14.1
2017-06-14T00:11:26.606Z,14.07
2017-06-14T00:12:07.136Z,14.09
2017-06-14T00:12:47.685Z,14
2017-06-14T00:13:28.225Z,13.97
2017-06-14T00:14:08.765Z,14.04
2017-06-14T00:14:49.302Z,14.03
2017-06-14T00:15:29.846Z,14
2017-06-14T00:16:10.385Z,14.02
2017-06-14T00:16:50.947Z,14
2017-06-14T00:17:31.465Z,13.92
2017-06-14T00:18:12.004Z,13.96
2017-06-14T00:18:52.541Z,13.89
2017-06-14T00:19:33.084Z,13.87
2017-06-14T00:20:13.631Z,13.87
2017-06-14T00:20:54.174Z,13.82
2017-06-14T00:21:34.715Z,13.82
2017-06-14T00:22:15.256Z,13.96
2017-06-14T00:22:55.794Z,13.95
2017-06-14T00:23:36.319Z,13.96
2017-06-14T00:24:16.860Z,13.97
2017-06-14T00:24:57.393Z,13.92
2017-06-14T00:25:37.926Z,13.91
2017-06-14T00:26:18.452Z,13.95
2017-06-14T00:26:58.992Z,13.91
2017-06-14T00:27:39.529Z,13.95
2017-06-14T00:28:20.068Z,13.88
2017-06-14T00:29:00.611Z,13.95
2017-06-14T00:29:41.148Z,13.96
2017-06-14T00:30:21.684Z,13.96
2017-06-14T00:31:02.235Z,13.97
2017-06-14T00:31:42.783Z,13.99
2017-06-14T00:32:23.324Z,13.92
2017-06-14T00:33:03.865Z,13.99
2017-06-14T00:33:44.410Z,13.95
2017-06-14T00:34:24.951Z,13.96
2017-06-14T00:35:05.492Z,13.91
2017-06-14T00:35:46.028Z,13.87
2017-06-14T00:36:26.570Z,13.85
2017-06-14T00:37:07.111Z,13.82
2017-06-14T00:37:47.648Z,13.81
2017-06-14T00:38:28.191Z,13.89
2017-06-14T00:39:08.736Z,13.84
2017-06-14T00:39:49.288Z,13.81
2017-06-14T00:40:29.825Z,13.85
2017-06-14T00:41:10.367Z,13.7
2017-06-14T00:41:50.910Z,13.71
2017-06-14T00:42:31.437Z,13.7
2017-06-14T00:43:11.996Z,13.71
2017-06-14T00:43:52.535Z,13.7
2017-06-14T00:44:33.075Z,13.69
2017-06-14T00:45:13.613Z,13.69
2017-06-14T00:45:54.152Z,13.67
2017-06-14T00:46:34.701Z,13.63
2017-06-14T00:47:15.246Z,13.59
2017-06-14T00:47:55.814Z,13.59
2017-06-14T00:48:36.320Z,13.6
2017-06-14T00:49:16.861Z,13.6
2017-06-14T00:49:57.391Z,13.55
2017-06-14T00:50:37.929Z,13.52
2017-06-14T00:51:18.469Z,13.62
2017-06-14T00:51:59.005Z,13.57
2017-06-14T00:52:39.554Z,13.57
2017-06-14T00:53:20.097Z,13.57
2017-06-14T00:54:00.627Z,13.57
2017-06-14T00:54:41.186Z,13.6
2017-06-14T00:55:21.725Z,13.52
2017-06-14T00:56:02.266Z,13.57
2017-06-14T00:56:42.801Z,13.59
2017-06-14T00:57:23.342Z,13.62
2017-06-14T00:58:03.876Z,13.6
2017-06-14T00:58:44.420Z,13.59
2017-06-14T00:59:24.961Z,13.6
2017-06-14T01:00:05.516Z,13.62
2017-06-14T01:00:46.062Z,13.55
2017-06-14T01:01:26.605Z,13.59
2017-06-14T01:02:07.144Z,13.57
2017-06-14T01:02:47.675Z,13.55
2017-06-14T01:03:28.219Z,13.6
2017-06-14T01:04:08.757Z,13.59
2017-06-14T01:04:49.299Z,13.55
2017-06-14T01:05:29.835Z,13.54
2017-06-14T01:06:10.377Z,13.51
2017-06-14T01:06:50.917Z,13.46
2017-06-14T01:07:31.463Z,13.51
2017-06-14T01:08:12.003Z,13.54
2017-06-14T01:08:52.543Z,13.44
2017-06-14T01:09:33.080Z,13.55
2017-06-14T01:10:13.607Z,13.55
2017-06-14T01:10:54.140Z,13.49
2017-06-14T01:11:34.681Z,13.44
2017-06-14T01:12:15.217Z,13.55
2017-06-14T01:12:55.760Z,13.54
2017-06-14T01:13:36.304Z,13.51
2017-06-14T01:14:16.848Z,13.57
2017-06-14T01:14:57.382Z,13.44
2017-06-14T01:15:37.924Z,13.51
2017-06-14T01:16:18.463Z,13.42
2017-06-14T01:16:58.998Z,13.45
2017-06-14T01:17:39.546Z,13.39
2017-06-14T01:18:20.095Z,13.52
2017-06-14T01:19:00.634Z,13.54
2017-06-14T01:19:41.179Z,13.38
2017-06-14T01:20:21.726Z,13.41
2017-06-14T01:21:02.270Z,13.44
2017-06-14T01:21:42.811Z,13.42
2017-06-14T01:22:23.334Z,13.44
2017-06-14T01:23:03.868Z,13.48
2017-06-14T01:23:44.402Z,13.41
2017-06-14T01:24:24.945Z,13.42
2017-06-14T01:25:05.487Z,13.48
2017-06-14T01:25:46.027Z,13.42
2017-06-14T01:26:26.566Z,13.46
2017-06-14T01:27:07.105Z,13.44
2017-06-14T01:27:47.646Z,13.33
2017-06-14T01:28:28.189Z,13.33
2017-06-14T01:29:08.730Z,13.36
2017-06-14T01:29:49.267Z,13.3
2017-06-14T01:30:29.809Z,13.38
2017-06-14T01:31:10.349Z,13.38
2017-06-14T01:31:50.888Z,13.36
2017-06-14T01:32:31.432Z,13.29
2017-06-14T01:33:11.970Z,13.45
2017-06-14T01:33:52.509Z,13.22
2017-06-14T01:34:33.048Z,13.33
2017-06-14T01:35:13.586Z,13.3
2017-06-14T01:35:54.130Z,13.28
2017-06-14T01:36:34.663Z,13.28
2017-06-14T01:37:15.202Z,13.36
2017-06-14T01:37:55.744Z,13.29
2017-06-14T01:38:36.285Z,13.32
2017-06-14T01:39:16.828Z,13.32
2017-06-14T01:39:57.403Z,13.28
2017-06-14T01:40:37.925Z,13.29
2017-06-14T01:41:18.473Z,13.3
2017-06-14T01:41:59.013Z,13.26
2017-06-14T01:42:39.543Z,13.25
2017-06-14T01:43:20.084Z,13.26
2017-06-14T01:44:00.614Z,13.26
2017-06-14T01:44:41.154Z,13.22
2017-06-14T01:45:21.727Z,13.28
2017-06-14T01:46:02.324Z,13.23
2017-06-14T01:46:42.853Z,13.23
2017-06-14T01:47:23.415Z,13.25
2017-06-14T01:48:03.944Z,13.25
2017-06-14T01:48:44.478Z,13.2
2017-06-14T01:49:25.018Z,13.2
2017-06-14T01:50:05.567Z,13.23
2017-06-14T01:50:46.129Z,13.14
2017-06-14T01:51:26.664Z,13.14
2017-06-14T01:52:07.199Z,13.25
2017-06-14T01:52:47.743Z,13.12
2017-06-14T01:53:28.290Z,13.15
2017-06-14T01:54:08.858Z,13.15
2017-06-14T01:54:49.396Z,13.15
2017-06-14T01:55:29.950Z,13.14
2017-06-14T01:56:10.497Z,13.2
2017-06-14T01:56:51.034Z,13.23
2017-06-14T01:57:31.572Z,13.12
2017-06-14T01:58:12.106Z,13.12
2017-06-14T01:58:52.639Z,13.12
2017-06-14T01:59:33.190Z,13.15
2017-06-14T02:00:13.722Z,13.12
2017-06-14T02:00:54.274Z,13.01
2017-06-14T02:01:34.829Z,13.03
2017-06-14T02:02:15.374Z,13
2017-06-14T02:02:55.915Z,13
2017-06-14T02:03:36.463Z,12.97
2017-06-14T02:04:17.008Z,13.03
2017-06-14T02:04:57.553Z,13.01
2017-06-14T02:05:38.097Z,12.97
2017-06-14T02:06:18.635Z,12.97
2017-06-14T02:06:59.170Z,13.05
2017-06-14T02:07:39.712Z,13.05
2017-06-14T02:08:20.250Z,13.04
2017-06-14T02:09:00.791Z,13.03
2017-06-14T02:09:41.332Z,13.01
2017-06-14T02:10:21.874Z,13
2017-06-14T02:11:02.432Z,12.97
2017-06-14T02:11:42.971Z,12.95
2017-06-14T02:12:23.514Z,12.9
2017-06-14T02:13:04.051Z,12.89
2017-06-14T02:13:44.597Z,12.87
2017-06-14T02:14:25.134Z,12.86
2017-06-14T02:15:05.667Z,12.92
2017-06-14T02:15:46.212Z,12.89
2017-06-14T02:16:26.748Z,12.82
2017-06-14T02:17:07.292Z,12.87
2017-06-14T02:17:47.826Z,12.87
2017-06-14T02:18:28.366Z,12.85
2017-06-14T02:19:08.904Z,12.82
2017-06-14T02:19:49.467Z,12.82
2017-06-14T02:20:30.017Z,12.79
2017-06-14T02:21:10.561Z,12.78
2017-06-14T02:21:51.101Z,12.68
2017-06-14T02:22:31.635Z,12.64
2017-06-14T02:23:12.174Z,12.7
2017-06-14T02:23:52.716Z,12.71
2017-06-14T02:24:33.250Z,12.71
2017-06-14T02:25:13.810Z,12.77
2017-06-14T02:25:54.349Z,12.68
2017-06-14T02:26:34.886Z,12.68
2017-06-14T02:27:15.416Z,12.72
2017-06-14T02:27:55.955Z,12.7
2017-06-14T02:28:36.485Z,12.71
2017-06-14T02:29:17.019Z,12.75
2017-06-14T02:29:57.571Z,12.67
2017-06-14T02:30:38.102Z,12.72
2017-06-14T02:31:18.639Z,12.68
2017-06-14T02:31:59.188Z,12.71
2017-06-14T02:32:39.732Z,12.7
2017-06-14T02:33:20.267Z,12.7
2017-06-14T02:34:00.805Z,12.68
2017-06-14T02:34:41.347Z,12.67
2017-06-14T02:35:21.891Z,12.7
2017-06-14T02:36:02.428Z,12.64
2017-06-14T02:36:42.976Z,12.67
2017-06-14T02:37:23.517Z,12.54
2017-06-14T02:38:04.055Z,12.64
2017-06-14T02:38:44.599Z,12.65
2017-06-14T02:39:25.140Z,12.65
2017-06-14T02:40:05.688Z,12.59
2017-06-14T02:40:46.211Z,12.57
2017-06-14T02:41:26.748Z,12.53
2017-06-14T02:42:07.303Z,12.54
2017-06-14T02:42:47.835Z,12.52
2017-06-14T02:43:28.382Z,12.53
2017-06-14T02:44:08.922Z,12.54
2017-06-14T02:44:49.466Z,12.54
2017-06-14T02:45:30.045Z,12.49
2017-06-14T02:46:10.585Z,12.54
2017-06-14T02:46:51.114Z,12.49
2017-06-14T02:47:31.650Z,12.54
2017-06-14T02:48:12.195Z,12.56
2017-06-14T02:48:52.722Z,12.53
2017-06-14T02:49:33.258Z,12.47
2017-06-14T02:50:13.796Z,12.42
2017-06-14T02:50:54.330Z,12.46
2017-06-14T02:51:34.871Z,12.46
2017-06-14T02:52:15.411Z,12.47
2017-06-14T02:52:55.949Z,12.46
2017-06-14T02:53:36.489Z,12.46
2017-06-14T02:54:17.029Z,12.45
2017-06-14T02:54:57.566Z,12.41
2017-06-14T02:55:38.111Z,12.46
2017-06-14T02:56:18.646Z,12.46
2017-06-14T02:56:59.185Z,12.37
2017-06-14T02:57:39.724Z,12.37
2017-06-14T02:58:20.266Z,12.37
2017-06-14T02:59:00.804Z,12.38
2017-06-14T02:59:41.340Z,12.37
2017-06-14T03:00:21.876Z,12.39
2017-06-14T03:01:02.421Z,12.38
2017-06-14T03:01:42.968Z,12.35
2017-06-14T03:02:23.504Z,12.32
2017-06-14T03:03:04.042Z,12.29
2017-06-14T03:03:44.585Z,12.31
2017-06-14T03:04:25.136Z,12.29
2017-06-14T03:05:05.677Z,12.29
2017-06-14T03:05:46.217Z,12.31
2017-06-14T03:06:26.761Z,12.31
2017-06-14T03:07:07.297Z,12.31
2017-06-14T03:07:47.836Z,12.29
2017-06-14T03:08:28.375Z,12.34
2017-06-14T03:09:08.914Z,12.32
2017-06-14T03:09:49.451Z,12.38
2017-06-14T03:10:29.989Z,12.34
2017-06-14T03:11:10.530Z,12.32
2017-06-14T03:11:51.073Z,12.31
2017-06-14T03:12:31.621Z,12.31
2017-06-14T03:13:12.159Z,12.35
2017-06-14T03:13:52.700Z,12.35
2017-06-14T03:14:33.231Z,12.29
2017-06-14T03:15:13.767Z,12.35
2017-06-14T03:15:54.311Z,12.34
2017-06-14T03:16:34.843Z,12.41
2017-06-14T03:17:15.388Z,12.42
2017-06-14T03:17:55.923Z,12.37
2017-06-14T03:18:36.467Z,12.39
2017-06-14T03:19:17.009Z,12.37
2017-06-14T03:19:57.541Z,12.45
2017-06-14T03:20:38.069Z,12.46
2017-06-14T03:21:18.612Z,12.47
2017-06-14T03:21:59.153Z,12.47
2017-06-14T03:22:39.690Z,12.47
2017-06-14T03:23:20.249Z,12.47
2017-06-14T03:24:00.800Z,12.46
2017-06-14T03:24:41.338Z,12.42
2017-06-14T03:25:21.878Z,12.45
2017-06-14T03:26:02.443Z,12.46
2017-06-14T03:26:42.953Z,12.46
2017-06-14T03:27:23.500Z,12.45
2017-06-14T03:28:04.039Z,12.45
2017-06-14T03:28:44.577Z,12.52
2017-06-14T03:29:25.128Z,12.45
2017-06-14T03:30:05.663Z,12.49
2017-06-14T03:30:46.200Z,12.5
2017-06-14T03:31:26.745Z,12.49
2017-06-14T03:32:07.286Z,12.46
2017-06-14T03:32:47.827Z,12.45
2017-06-14T03:33:28.368Z,12.45
2017-06-14T03:34:08.904Z,12.47
2017-06-14T03:34:49.443Z,12.45
2017-06-14T03:35:29.986Z,12.42
2017-06-14T03:36:10.533Z,12.5
2017-06-14T03:36:51.061Z,12.45
2017-06-14T03:37:31.603Z,12.47
2017-06-14T03:38:12.159Z,12.46
2017-06-14T03:38:52.705Z,12.46
2017-06-14T03:39:33.255Z,12.46
2017-06-14T03:40:14.421Z,12.39
2017-06-14T03:40:54.971Z,12.41
2017-06-14T03:41:35.510Z,12.49
2017-06-14T03:42:16.048Z,12.5
2017-06-14T03:42:56.582Z,12.42
2017-06-14T03:43:37.124Z,12.47
2017-06-14T03:44:17.671Z,12.46
2017-06-14T03:44:58.209Z,12.45
2017-06-14T03:45:38.759Z,12.47
2017-06-14T03:46:19.300Z,12.41
2017-06-14T03:46:59.840Z,12.46
2017-06-14T03:47:40.382Z,12.46
2017-06-14T03:48:20.919Z,12.5
2017-06-14T03:49:01.458Z,12.46
2017-06-14T03:49:41.996Z,12.53
2017-06-14T03:50:22.535Z,12.42
2017-06-14T03:51:03.082Z,12.42
2017-06-14T03:51:43.617Z,12.46
2017-06-14T03:52:24.167Z,12.53
2017-06-14T03:53:04.703Z,12.5
2017-06-14T03:53:45.249Z,12.5
2017-06-14T03:54:25.806Z,12.53
2017-06-14T03:55:06.352Z,12.52
2017-06-14T03:55:46.888Z,12.53
2017-06-14T03:56:27.429Z,12.5
2017-06-14T03:57:07.948Z,12.52
2017-06-14T03:57:48.485Z,12.47
2017-06-14T03:58:29.024Z,12.49
2017-06-14T03:59:09.557Z,12.47
2017-06-14T03:59:50.099Z,12.5
2017-06-14T04:00:30.641Z,12.56
2017-06-14T04:01:11.180Z,12.54
2017-06-14T04:01:51.777Z,12.53
2017-06-14T04:02:32.311Z,12.54
2017-06-14T04:03:12.857Z,12.52
2017-06-14T04:03:53.384Z,12.54
2017-06-14T04:04:33.916Z,12.52
2017-06-14T04:05:14.452Z,12.53
2017-06-14T04:05:54.984Z,12.54
2017-06-14T04:06:35.548Z,12.57
2017-06-14T04:07:16.060Z,12.57
2017-06-14T04:07:56.599Z,12.52
2017-06-14T04:08:37.189Z,12.5
2017-06-14T04:09:17.727Z,12.54
2017-06-14T04:09:58.265Z,12.5
2017-06-14T04:10:38.777Z,12.57
2017-06-14T04:11:19.312Z,12.52
2017-06-14T04:11:59.854Z,12.52
2017-06-14T04:12:40.386Z,12.5
2017-06-14T04:13:20.918Z,12.56
2017-06-14T04:14:01.932Z,12.52
2017-06-14T04:14:47.996Z,12.49
2017-06-14T04:15:29.049Z,12.45
2017-06-14T04:16:15.904Z,12.52
2017-06-14T04:18:12.871Z,12.46
2017-06-14T04:18:54.177Z,12.53
2017-06-14T04:19:35.717Z,12.5
2017-06-14T04:20:17.282Z,12.46
2017-06-14T04:20:59.316Z,12.53
2017-06-14T04:21:39.906Z,12.5
2017-06-14T04:22:20.918Z,12.54
2017-06-14T04:23:01.668Z,12.56
2017-06-14T04:23:43.069Z,12.54
2017-06-14T04:24:23.814Z,12.56
2017-06-14T04:25:04.378Z,12.54
2017-06-14T04:25:45.094Z,12.59
2017-06-14T04:26:25.819Z,12.59
2017-06-14T04:27:07.033Z,12.6
2017-06-14T04:27:47.664Z,12.56
2017-06-14T04:28:28.614Z,12.64
2017-06-14T04:29:09.419Z,12.6
2017-06-14T04:29:50.216Z,12.6
2017-06-14T04:30:30.968Z,12.65
2017-06-14T04:31:11.338Z,12.67
2017-06-14T04:31:51.956Z,12.59
2017-06-14T04:32:32.661Z,12.65
2017-06-14T04:33:13.407Z,12.65
2017-06-14T04:33:54.790Z,12.71
2017-06-14T04:34:34.922Z,12.71
2017-06-14T04:35:15.677Z,12.71
2017-06-14T04:35:56.408Z,12.65
2017-06-14T04:36:37.318Z,12.7
2017-06-14T04:37:17.977Z,12.67
2017-06-14T04:37:58.926Z,12.68
2017-06-14T04:38:39.590Z,12.79
2017-06-14T04:39:20.294Z,12.7
2017-06-14T04:40:00.948Z,12.78
2017-06-14T04:40:41.669Z,12.77
2017-06-14T04:41:22.206Z,12.7
2017-06-14T04:42:02.732Z,12.82
2017-06-14T04:42:43.345Z,12.83
2017-06-14T04:43:23.899Z,12.82
2017-06-14T04:44:04.456Z,12.7
2017-06-14T04:44:44.996Z,12.78
2017-06-14T04:45:25.591Z,12.82
2017-06-14T04:46:06.130Z,12.78
2017-06-14T04:46:46.967Z,12.79
2017-06-14T04:47:27.509Z,12.87
2017-06-14T04:48:08.041Z,12.86
2017-06-14T04:48:48.652Z,12.86
2017-06-14T04:49:29.292Z,12.85
2017-06-14T04:50:09.990Z,12.83
2017-06-14T04:50:50.517Z,12.86
2017-06-14T04:51:31.263Z,12.83
2017-06-14T04:52:11.795Z,12.92
2017-06-14T04:52:52.346Z,12.92
2017-06-14T04:53:32.917Z,12.86
2017-06-14T04:54:13.657Z,12.86
2017-06-14T04:54:54.316Z,12.89
2017-06-14T04:55:34.855Z,12.92
2017-06-14T04:56:15.394Z,12.97
2017-06-14T04:56:55.939Z,12.95
2017-06-14T04:57:36.811Z,12.92
2017-06-14T04:58:17.294Z,13.01
2017-06-14T04:58:57.890Z,12.95
2017-06-14T04:59:38.862Z,13.03
2017-06-14T05:00:19.415Z,13.01
2017-06-14T05:00:59.954Z,13.03
2017-06-14T05:01:40.638Z,13.04
2017-06-14T05:02:21.209Z,13.07
2017-06-14T05:03:01.736Z,13.04
2017-06-14T05:03:42.278Z,13.04
2017-06-14T05:04:22.847Z,13
2017-06-14T05:05:03.386Z,13.05
2017-06-14T05:05:43.911Z,13.1
2017-06-14T05:06:24.449Z,13.12
2017-06-14T05:07:04.974Z,13.08
2017-06-14T05:07:45.497Z,13.14
2017-06-14T05:08:26.722Z,13.15
2017-06-14T05:09:07.261Z,13.15
2017-06-14T05:09:47.798Z,13.19
2017-06-14T05:10:28.338Z,13.2
2017-06-14T05:11:08.880Z,13.17
2017-06-14T05:11:49.448Z,13.15
2017-06-14T05:12:29.975Z,13.17
2017-06-14T05:13:10.517Z,13.2
2017-06-14T05:13:51.046Z,13.2
2017-06-14T05:14:31.596Z,13.15
2017-06-14T05:15:12.148Z,13.23
2017-06-14T05:15:52.681Z,13.26
2017-06-14T05:16:33.223Z,13.23
2017-06-14T05:17:13.769Z,13.26
2017-06-14T05:17:54.317Z,13.25
2017-06-14T05:18:34.861Z,13.28
2017-06-14T05:19:15.383Z,13.26
2017-06-14T05:19:55.917Z,13.26
2017-06-14T05:20:36.467Z,13.26
2017-06-14T05:21:16.997Z,13.38
2017-06-14T05:21:57.541Z,13.39
2017-06-14T05:22:38.074Z,13.39
2017-06-14T05:23:18.602Z,13.41
2017-06-14T05:23:59.136Z,13.45
2017-06-14T05:24:39.670Z,13.44
2017-06-14T05:25:20.208Z,13.41
2017-06-14T05:26:00.754Z,13.42
2017-06-14T05:26:41.292Z,13.38
2017-06-14T05:27:21.829Z,13.54
2017-06-14T05:28:02.414Z,13.49
2017-06-14T05:28:42.977Z,13.54
2017-06-14T05:29:25.258Z,13.57
2017-06-14T05:30:06.074Z,13.6
2017-06-14T05:30:46.849Z,13.62
2017-06-14T05:31:29.949Z,13.63
2017-06-14T05:32:10.893Z,13.64
2017-06-14T05:32:52.538Z,13.67
2017-06-14T05:33:33.966Z,13.73
2017-06-14T05:34:14.643Z,13.75
2017-06-14T05:34:57.756Z,13.79
2017-06-14T05:35:40.744Z,13.78
2017-06-14T05:36:24.724Z,13.81
2017-06-14T05:37:07.047Z,13.81
2017-06-14T05:37:48.451Z,13.79
2017-06-14T05:38:29.491Z,13.82
2017-06-14T05:39:10.083Z,13.91
2017-06-14T05:39:51.190Z,13.95
2017-06-14T05:40:32.331Z,13.89
2017-06-14T05:42:00.095Z,14.03
2017-06-14T05:42:40.642Z,14
2017-06-14T05:43:21.186Z,14.03
2017-06-14T05:44:01.723Z,14.14
2017-06-14T05:44:42.245Z,14.06
2017-06-14T05:45:22.807Z,14.15
2017-06-14T05:46:03.342Z,14.15
2017-06-14T05:46:43.869Z,14.25
2017-06-14T05:47:24.400Z,14.24
2017-06-14T05:48:04.889Z,14.27
2017-06-14T05:48:45.437Z,14.36
2017-06-14T05:49:25.972Z,14.24
2017-06-14T05:50:06.504Z,14.36
2017-06-14T05:50:47.107Z,14.32
2017-06-14T05:51:27.903Z,14.36
2017-06-14T05:52:08.551Z,14.37
2017-06-14T05:52:49.129Z,14.42
2017-06-14T05:53:29.642Z,14.5
2017-06-14T05:54:10.180Z,14.6
2017-06-14T05:54:50.722Z,14.6
2017-06-14T05:55:31.278Z,14.65
2017-06-14T05:56:11.818Z,14.65
2017-06-14T05:56:52.337Z,14.7
2017-06-14T05:57:32.859Z,14.7
2017-06-14T05:58:13.378Z,14.77
2017-06-14T05:58:53.933Z,14.69
2017-06-14T05:59:34.464Z,14.75
2017-06-14T06:00:14.994Z,14.77
2017-06-14T06:00:55.520Z,14.78
2017-06-14T06:01:36.094Z,14.86
2017-06-14T06:02:16.604Z,14.88
2017-06-14T06:02:57.147Z,14.99
2017-06-14T06:03:37.690Z,15.03
2017-06-14T06:04:18.225Z,15.06
2017-06-14T06:04:58.764Z,15.14
2017-06-14T06:05:39.298Z,15.17
2017-06-14T06:06:19.838Z,15.25
2017-06-14T06:07:00.376Z,15.36
2017-06-14T06:07:40.926Z,15.34
2017-06-14T06:08:21.468Z,15.41
2017-06-14T06:09:02.007Z,15.49
2017-06-14T06:09:42.546Z,15.51
2017-06-14T06:10:23.086Z,15.53
2017-06-14T06:11:03.673Z,15.46
2017-06-14T06:11:44.207Z,15.49
2017-06-14T06:12:24.746Z,15.49
2017-06-14T06:13:05.296Z,15.6
2017-06-14T06:13:45.836Z,15.56
2017-06-14T06:14:26.376Z,15.65
2017-06-14T06:15:06.914Z,15.67
2017-06-14T06:15:47.471Z,15.82
2017-06-14T06:16:28.019Z,15.8
2017-06-14T06:17:08.566Z,15.84
2017-06-14T06:17:49.107Z,15.93
2017-06-14T06:18:29.649Z,16.04
2017-06-14T06:19:10.182Z,16.04
2017-06-14T06:19:50.703Z,16.05
2017-06-14T06:20:31.249Z,16.05
2017-06-14T06:21:11.785Z,16.11
2017-06-14T06:21:52.349Z,16.15
2017-06-14T06:22:32.896Z,16.17
2017-06-14T06:23:13.445Z,16.09
2017-06-14T06:23:53.986Z,16.11
2017-06-14T06:24:34.528Z,16.02
2017-06-14T06:25:15.060Z,16.08
2017-06-14T06:25:55.603Z,16.09
2017-06-14T06:26:36.140Z,16.04
2017-06-14T06:27:16.684Z,16.01
2017-06-14T06:27:57.226Z,16.12
2017-06-14T06:28:37.777Z,16.08
2017-06-14T06:29:18.314Z,16.11
2017-06-14T06:29:58.856Z,16.05
2017-06-14T06:30:39.412Z,16.15
2017-06-14T06:31:19.965Z,16.24
2017-06-14T06:32:00.516Z,16.2
2017-06-14T06:32:41.065Z,16.28
2017-06-14T06:33:21.609Z,16.31
2017-06-14T06:34:02.202Z,16.3
2017-06-14T06:34:42.747Z,16.33
2017-06-14T06:35:23.258Z,16.38
2017-06-14T06:36:03.758Z,16.39
2017-06-14T06:36:44.299Z,16.34
2017-06-14T06:37:24.851Z,16.39
2017-06-14T06:38:05.392Z,16.45
2017-06-14T06:38:45.905Z,16.48
2017-06-14T06:39:26.477Z,16.42
2017-06-14T06:40:06.970Z,16.56
2017-06-14T06:40:47.501Z,16.48
2017-06-14T06:41:28.063Z,16.58
2017-06-14T06:42:08.898Z,16.57
2017-06-14T06:42:49.484Z,16.56
2017-06-14T06:43:30.018Z,16.53
2017-06-14T06:44:10.721Z,16.63
2017-06-14T06:44:51.310Z,16.76
2017-06-14T06:45:31.978Z,16.81
2017-06-14T06:46:12.547Z,16.85
2017-06-14T06:46:53.127Z,16.86
2017-06-14T06:47:33.635Z,16.85
2017-06-14T06:48:14.218Z,16.94
2017-06-14T06:48:54.739Z,16.94
2017-06-14T06:49:35.388Z,16.91
2017-06-14T06:50:15.929Z,16.88
2017-06-14T06:50:56.490Z,16.91
2017-06-14T06:51:37.029Z,16.93
2017-06-14T06:52:17.586Z,16.96
2017-06-14T06:52:58.227Z,16.97
2017-06-14T06:53:38.798Z,16.94
2017-06-14T06:54:19.342Z,16.98
2017-06-14T06:54:59.892Z,16.96
2017-06-14T06:55:40.450Z,16.98
2017-06-14T06:56:21.003Z,16.98
2017-06-14T06:57:01.550Z,17.06
2017-06-14T06:57:42.182Z,17.01
2017-06-14T06:58:22.730Z,17.06
2017-06-14T06:59:03.302Z,17.03
2017-06-14T06:59:43.823Z,17.14
2017-06-14T07:00:24.355Z,17.18
2017-06-14T07:01:04.901Z,17.28
2017-06-14T07:01:45.431Z,17.23
2017-06-14T07:02:25.962Z,17.26
2017-06-14T07:03:06.505Z,17.28
2017-06-14T07:03:47.048Z,17.3
2017-06-14T07:04:27.597Z,17.37
2017-06-14T07:05:08.156Z,17.4
2017-06-14T07:05:48.706Z,17.51
2017-06-14T07:06:29.248Z,17.49
2017-06-14T07:07:09.778Z,17.52
2017-06-14T07:07:50.350Z,17.51
2017-06-14T07:08:30.890Z,17.56
2017-06-14T07:09:11.433Z,17.54
2017-06-14T07:09:52.009Z,17.62
2017-06-14T07:10:32.566Z,17.74
2017-06-14T07:11:13.103Z,17.68
2017-06-14T07:11:53.668Z,17.75
2017-06-14T07:12:34.212Z,17.78
2017-06-14T07:13:14.739Z,17.77
2017-06-14T07:13:55.266Z,17.93
2017-06-14T07:14:35.803Z,17.96
2017-06-14T07:15:16.342Z,17.99
2017-06-14T07:15:56.906Z,17.95
2017-06-14T07:16:37.446Z,18.02
2017-06-14T07:17:17.978Z,18.02
2017-06-14T07:17:58.530Z,18.11
2017-06-14T07:18:39.071Z,18.15
2017-06-14T07:19:19.613Z,18.2
2017-06-14T07:20:00.173Z,18.23
2017-06-14T07:20:40.725Z,18.29
2017-06-14T07:21:21.277Z,18.3
2017-06-14T07:22:01.835Z,18.27
2017-06-14T07:22:42.373Z,18.25
2017-06-14T07:23:22.929Z,18.35
2017-06-14T07:24:03.472Z,18.37
2017-06-14T07:24:44.030Z,18.37
2017-06-14T07:25:24.604Z,18.42
2017-06-14T07:26:05.123Z,18.44
2017-06-14T07:26:45.678Z,18.33
2017-06-14T07:27:26.233Z,18.37
2017-06-14T07:28:06.805Z,18.5
2017-06-14T07:28:47.333Z,18.45
2017-06-14T07:29:27.884Z,18.5
2017-06-14T07:30:08.423Z,18.54
2017-06-14T07:30:48.925Z,18.6
2017-06-14T07:31:29.487Z,18.67
2017-06-14T07:32:10.009Z,18.66
2017-06-14T07:32:50.567Z,18.7
2017-06-14T07:33:31.110Z,18.75
2017-06-14T07:34:11.641Z,18.82
2017-06-14T07:34:52.189Z,18.85
2017-06-14T07:35:32.742Z,18.9
2017-06-14T07:36:13.289Z,18.9
2017-06-14T07:36:53.820Z,18.98
2017-06-14T07:37:34.346Z,19.02
2017-06-14T07:38:14.875Z,19.07
2017-06-14T07:38:55.418Z,19.02
2017-06-14T07:39:35.942Z,19.06
2017-06-14T07:40:16.476Z,19.1
2017-06-14T07:40:57.009Z,19
2017-06-14T07:41:37.567Z,19.08
2017-06-14T07:42:18.098Z,19.06
2017-06-14T07:42:58.631Z,19.04
2017-06-14T07:43:39.200Z,19.06
2017-06-14T07:44:19.729Z,19.1
2017-06-14T07:45:00.270Z,19.06
2017-06-14T07:45:40.804Z,19.19
2017-06-14T07:46:21.332Z,19.18
2017-06-14T07:47:01.870Z,19.18
2017-06-14T07:47:42.431Z,19.22
2017-06-14T07:48:22.968Z,19.22
2017-06-14T07:49:03.524Z,19.25
2017-06-14T07:49:44.072Z,19.25
2017-06-14T07:50:24.651Z,19.28
2017-06-14T07:51:05.191Z,19.37
2017-06-14T07:51:45.729Z,19.4
2017-06-14T07:52:26.256Z,19.51
2017-06-14T07:53:06.777Z,19.56
2017-06-14T07:53:47.334Z,19.54
2017-06-14T07:54:27.879Z,19.48
2017-06-14T07:55:08.415Z,19.44
2017-06-14T07:55:48.961Z,19.4
2017-06-14T07:56:29.503Z,19.51
2017-06-14T07:57:10.060Z,19.51
2017-06-14T07:57:50.603Z,19.66
2017-06-14T07:58:31.163Z,19.73
2017-06-14T07:59:11.707Z,19.76
2017-06-14T07:59:52.254Z,19.99
2017-06-14T08:00:32.813Z,19.99
2017-06-14T08:01:13.362Z,20.08
2017-06-14T08:01:53.902Z,20.32
2017-06-14T08:02:34.464Z,20.41
2017-06-14T08:03:14.982Z,20.51
2017-06-14T08:03:55.515Z,20.62
2017-06-14T08:04:36.089Z,20.7
2017-06-14T08:05:16.691Z,20.7
2017-06-14T08:05:57.222Z,20.85
2017-06-14T08:06:37.776Z,20.99
2017-06-14T08:07:18.324Z,21.12
2017-06-14T08:07:58.883Z,21.29
2017-06-14T08:08:39.424Z,21.53
2017-06-14T08:09:19.978Z,21.59
2017-06-14T08:10:00.526Z,21.75
2017-06-14T08:10:41.068Z,22.06
2017-06-14T08:11:21.627Z,22.3
2017-06-14T08:12:02.171Z,22.42
2017-06-14T08:12:42.728Z,22.6
2017-06-14T08:13:23.263Z,22.61
2017-06-14T08:14:03.824Z,22.6
2017-06-14T08:14:44.378Z,22.64
2017-06-14T08:15:24.933Z,22.47
2017-06-14T08:16:05.494Z,22.46
2017-06-14T08:16:46.029Z,22.47
2017-06-14T08:17:26.581Z,22.4
2017-06-14T08:18:07.132Z,22.39
2017-06-14T08:18:47.688Z,22.46
2017-06-14T08:19:28.231Z,22.52
2017-06-14T08:20:08.791Z,22.62
2017-06-14T08:20:49.346Z,22.64
2017-06-14T08:21:29.893Z,22.68
2017-06-14T08:22:10.490Z,22.73
2017-06-14T08:22:51.054Z,22.73
2017-06-14T08:23:31.556Z,22.72
2017-06-14T08:24:12.101Z,22.75
2017-06-14T08:24:52.647Z,22.72
2017-06-14T08:25:33.191Z,22.88
2017-06-14T08:26:13.756Z,22.97
2017-06-14T08:26:54.300Z,23.17
2017-06-14T08:27:34.847Z,23.39
2017-06-14T08:28:15.408Z,23.7
2017-06-14T08:28:55.948Z,24
2017-06-14T08:29:36.505Z,24.22
2017-06-14T08:30:17.054Z,24.49
2017-06-14T08:30:57.598Z,24.65
2017-06-14T08:31:38.150Z,24.96
2017-06-14T08:32:18.701Z,25.14
2017-06-14T08:32:59.269Z,25.17
2017-06-14T08:33:39.814Z,25.08
2017-06-14T08:34:20.360Z,24.95
2017-06-14T08:35:00.906Z,24.88
2017-06-14T08:35:41.448Z,24.95
2017-06-14T08:36:22.015Z,25.1
2017-06-14T08:37:02.563Z,25.47
2017-06-14T08:37:43.112Z,25.87
2017-06-14T08:38:23.671Z,26.21
2017-06-14T08:39:04.257Z,26.5
2017-06-14T08:39:44.836Z,26.8
2017-06-14T08:40:25.415Z,27.02
2017-06-14T08:41:05.974Z,27.28
2017-06-14T08:41:46.546Z,27.37
2017-06-14T08:42:27.080Z,27.29
2017-06-14T08:43:07.628Z,27.31
2017-06-14T08:43:48.181Z,27.24
2017-06-14T08:44:28.722Z,27.31
2017-06-14T08:45:09.272Z,27.25
2017-06-14T08:45:49.819Z,27.29
2017-06-14T08:46:30.374Z,27.18
2017-06-14T08:47:10.937Z,27.14
2017-06-14T08:47:51.482Z,27.25